sensor_id;sensor_type;location;lat;lon;timestamp;P1;durP1;ratioP1;P2;durP2;ratioP2
72850;SDS011;61171;43.848;10.510;2022-09-01T00:31:33;12.45;;;7.75;;
72850;SDS011;61171;43.848;10.510;2022-09-01T00:33:34;21.97;;;9.57;;
72850;SDS011;61171;43.848;10.510;2022-09-01T00:35:34;35.40;;;10.93;;
72850;SDS011;61171;43.848;10.510;2022-09-01T00:37:34;12.03;;;7.70;;
72850;SDS011;61171;43.848;10.510;2022-09-01T00:39:35;12.87;;;8.30;;
72850;SDS011;61171;43.848;10.510;2022-09-01T00:41:37;10.15;;;6.35;;
72850;SDS011;61171;43.848;10.510;2022-09-01T00:43:47;14.27;;;7.10;;
72850;SDS011;61171;43.848;10.510;2022-09-01T00:45:47;11.27;;;6.80;;
72850;SDS011;61171;43.848;10.510;2022-09-01T00:47:50;13.60;;;7.05;;
72850;SDS011;61171;43.848;10.510;2022-09-01T00:49:51;10.47;;;6.80;;
72850;SDS011;61171;43.848;10.510;2022-09-01T00:51:53;10.57;;;5.82;;
72850;SDS011;61171;43.848;10.510;2022-09-01T00:53:55;10.50;;;5.53;;
72850;SDS011;61171;43.848;10.510;2022-09-01T00:55:57;8.75;;;5.40;;
72850;SDS011;61171;43.848;10.510;2022-09-01T00:57:58;10.10;;;5.73;;
72850;SDS011;61171;43.848;10.510;2022-09-01T00:59:59;13.07;;;6.07;;
72850;SDS011;61171;43.848;10.510;2022-09-01T01:02:00;17.77;;;6.10;;
72850;SDS011;61171;43.848;10.510;2022-09-01T01:04:02;11.77;;;5.53;;
72850;SDS011;61171;43.848;10.510;2022-09-01T01:06:04;9.00;;;5.15;;
72850;SDS011;61171;43.848;10.510;2022-09-01T01:08:27;10.77;;;5.57;;
72850;SDS011;61171;43.848;10.510;2022-09-01T01:10:34;10.98;;;5.78;;
72850;SDS011;61171;43.848;10.510;2022-09-01T01:12:44;7.72;;;4.75;;
72850;SDS011;61171;43.848;10.510;2022-09-01T01:14:46;8.57;;;5.13;;
72850;SDS011;61171;43.848;10.510;2022-09-01T01:16:49;8.52;;;4.88;;
72850;SDS011;61171;43.848;10.510;2022-09-01T01:18:51;10.73;;;5.10;;
72850;SDS011;61171;43.848;10.510;2022-09-01T01:21:06;9.73;;;5.17;;
72850;SDS011;61171;43.848;10.510;2022-09-01T01:23:44;7.97;;;4.73;;
72850;SDS011;61171;43.848;10.510;2022-09-01T01:25:52;8.48;;;4.70;;
72850;SDS011;61171;43.848;10.510;2022-09-01T01:28:03;10.15;;;5.13;;
72850;SDS011;61171;43.848;10.510;2022-09-01T01:30:04;9.68;;;5.25;;
72850;SDS011;61171;43.848;10.510;2022-09-01T01:32:09;8.52;;;4.72;;
72850;SDS011;61171;43.848;10.510;2022-09-01T01:34:11;9.50;;;6.50;;
72850;SDS011;61171;43.848;10.510;2022-09-01T01:36:30;10.90;;;7.80;;
72850;SDS011;61171;43.848;10.510;2022-09-01T01:38:31;10.00;;;6.70;;
72850;SDS011;61171;43.848;10.510;2022-09-01T01:40:31;11.20;;;6.00;;
72850;SDS011;61171;43.848;10.510;2022-09-01T01:42:34;11.55;;;5.93;;
72850;SDS011;61171;43.848;10.510;2022-09-01T01:44:36;10.27;;;5.90;;
72850;SDS011;61171;43.848;10.510;2022-09-01T01:46:39;9.88;;;6.47;;
72850;SDS011;61171;43.848;10.510;2022-09-01T01:48:41;9.90;;;6.30;;
72850;SDS011;61171;43.848;10.510;2022-09-01T01:50:42;10.53;;;6.20;;
72850;SDS011;61171;43.848;10.510;2022-09-01T01:52:45;9.80;;;5.97;;
72850;SDS011;61171;43.848;10.510;2022-09-01T01:54:46;10.68;;;5.93;;
72850;SDS011;61171;43.848;10.510;2022-09-01T01:56:46;11.53;;;5.50;;
72850;SDS011;61171;43.848;10.510;2022-09-01T01:58:46;9.97;;;5.87;;
72850;SDS011;61171;43.848;10.510;2022-09-01T02:00:48;10.55;;;6.22;;
72850;SDS011;61171;43.848;10.510;2022-09-01T02:02:49;9.52;;;5.97;;
72850;SDS011;61171;43.848;10.510;2022-09-01T02:04:52;8.43;;;5.40;;
72850;SDS011;61171;43.848;10.510;2022-09-01T02:06:53;9.43;;;5.67;;
72850;SDS011;61171;43.848;10.510;2022-09-01T02:08:55;11.23;;;6.25;;
72850;SDS011;61171;43.848;10.510;2022-09-01T02:10:57;9.23;;;5.80;;
72850;SDS011;61171;43.848;10.510;2022-09-01T02:12:59;10.00;;;5.25;;
72850;SDS011;61171;43.848;10.510;2022-09-01T02:15:03;9.77;;;5.75;;
72850;SDS011;61171;43.848;10.510;2022-09-01T02:17:06;10.67;;;5.87;;
72850;SDS011;61171;43.848;10.510;2022-09-01T02:19:25;7.45;;;5.30;;
72850;SDS011;61171;43.848;10.510;2022-09-01T02:21:46;10.05;;;4.85;;
72850;SDS011;61171;43.848;10.510;2022-09-01T02:23:56;9.98;;;4.88;;
72850;SDS011;61171;43.848;10.510;2022-09-01T02:26:00;8.23;;;4.90;;
72850;SDS011;61171;43.848;10.510;2022-09-01T02:28:01;9.38;;;5.20;;
72850;SDS011;61171;43.848;10.510;2022-09-01T02:30:03;8.73;;;5.30;;
72850;SDS011;61171;43.848;10.510;2022-09-01T02:32:05;10.15;;;5.13;;
72850;SDS011;61171;43.848;10.510;2022-09-01T02:34:06;8.60;;;5.30;;
72850;SDS011;61171;43.848;10.510;2022-09-01T02:36:14;11.07;;;5.60;;
72850;SDS011;61171;43.848;10.510;2022-09-01T02:38:15;9.40;;;5.28;;
72850;SDS011;61171;43.848;10.510;2022-09-01T02:40:16;9.73;;;5.60;;
72850;SDS011;61171;43.848;10.510;2022-09-01T02:42:17;8.57;;;5.43;;
72850;SDS011;61171;43.848;10.510;2022-09-01T02:44:19;7.63;;;5.50;;
72850;SDS011;61171;43.848;10.510;2022-09-01T02:46:21;8.32;;;5.50;;
72850;SDS011;61171;43.848;10.510;2022-09-01T02:48:30;10.15;;;5.60;;
72850;SDS011;61171;43.848;10.510;2022-09-01T02:50:31;9.30;;;5.30;;
72850;SDS011;61171;43.848;10.510;2022-09-01T02:52:32;8.77;;;5.30;;
72850;SDS011;61171;43.848;10.510;2022-09-01T02:54:35;9.17;;;5.57;;
72850;SDS011;61171;43.848;10.510;2022-09-01T02:56:35;7.88;;;5.45;;
72850;SDS011;61171;43.848;10.510;2022-09-01T02:58:35;13.73;;;5.70;;
72850;SDS011;61171;43.848;10.510;2022-09-01T03:00:45;9.20;;;5.20;;
72850;SDS011;61171;43.848;10.510;2022-09-01T03:02:49;8.45;;;5.60;;
72850;SDS011;61171;43.848;10.510;2022-09-01T03:04:50;9.80;;;5.93;;
72850;SDS011;61171;43.848;10.510;2022-09-01T03:06:55;9.75;;;6.55;;
72850;SDS011;61171;43.848;10.510;2022-09-01T03:08:57;10.80;;;6.57;;
72850;SDS011;61171;43.848;10.510;2022-09-01T03:11:00;8.67;;;6.20;;
72850;SDS011;61171;43.848;10.510;2022-09-01T03:13:03;8.52;;;6.28;;
72850;SDS011;61171;43.848;10.510;2022-09-01T03:15:05;8.32;;;5.80;;
72850;SDS011;61171;43.848;10.510;2022-09-01T03:17:06;8.63;;;5.90;;
72850;SDS011;61171;43.848;10.510;2022-09-01T03:19:07;11.73;;;6.53;;
72850;SDS011;61171;43.848;10.510;2022-09-01T03:21:08;10.30;;;6.20;;
72850;SDS011;61171;43.848;10.510;2022-09-01T03:23:10;9.75;;;6.50;;
72850;SDS011;61171;43.848;10.510;2022-09-01T03:25:13;9.63;;;6.10;;
72850;SDS011;61171;43.848;10.510;2022-09-01T03:27:14;10.77;;;6.13;;
72850;SDS011;61171;43.848;10.510;2022-09-01T03:29:14;8.23;;;6.00;;
72850;SDS011;61171;43.848;10.510;2022-09-01T03:31:14;8.77;;;5.70;;
72850;SDS011;61171;43.848;10.510;2022-09-01T03:33:16;10.17;;;5.70;;
72850;SDS011;61171;43.848;10.510;2022-09-01T03:35:17;8.95;;;5.57;;
72850;SDS011;61171;43.848;10.510;2022-09-01T03:37:17;10.17;;;5.90;;
72850;SDS011;61171;43.848;10.510;2022-09-01T03:39:19;11.15;;;6.03;;
72850;SDS011;61171;43.848;10.510;2022-09-01T03:41:24;11.73;;;6.00;;
72850;SDS011;61171;43.848;10.510;2022-09-01T03:43:25;9.02;;;5.85;;
72850;SDS011;61171;43.848;10.510;2022-09-01T03:45:26;12.13;;;5.93;;
72850;SDS011;61171;43.848;10.510;2022-09-01T03:47:28;8.65;;;5.47;;
72850;SDS011;61171;43.848;10.510;2022-09-01T03:49:28;10.07;;;5.80;;
72850;SDS011;61171;43.848;10.510;2022-09-01T03:51:28;10.20;;;5.43;;
72850;SDS011;61171;43.848;10.510;2022-09-01T03:53:31;10.88;;;5.78;;
72850;SDS011;61171;43.848;10.510;2022-09-01T03:55:32;8.43;;;5.53;;
72850;SDS011;61171;43.848;10.510;2022-09-01T03:57:33;10.90;;;5.60;;
72850;SDS011;61171;43.848;10.510;2022-09-01T03:59:33;10.47;;;5.70;;
72850;SDS011;61171;43.848;10.510;2022-09-01T04:01:33;11.23;;;5.90;;
72850;SDS011;61171;43.848;10.510;2022-09-01T04:03:36;9.10;;;6.13;;
72850;SDS011;61171;43.848;10.510;2022-09-01T04:05:38;9.48;;;5.80;;
72850;SDS011;61171;43.848;10.510;2022-09-01T04:07:39;10.40;;;5.80;;
72850;SDS011;61171;43.848;10.510;2022-09-01T04:09:39;10.07;;;5.90;;
72850;SDS011;61171;43.848;10.510;2022-09-01T04:11:41;10.10;;;5.77;;
72850;SDS011;61171;43.848;10.510;2022-09-01T04:13:45;8.77;;;5.82;;
72850;SDS011;61171;43.848;10.510;2022-09-01T04:15:46;9.52;;;5.90;;
72850;SDS011;61171;43.848;10.510;2022-09-01T04:17:46;9.30;;;6.00;;
72850;SDS011;61171;43.848;10.510;2022-09-01T04:20:05;11.43;;;5.80;;
72850;SDS011;61171;43.848;10.510;2022-09-01T04:22:08;10.82;;;6.07;;
72850;SDS011;61171;43.848;10.510;2022-09-01T04:24:12;9.13;;;5.90;;
72850;SDS011;61171;43.848;10.510;2022-09-01T04:26:13;9.77;;;6.30;;
72850;SDS011;61171;43.848;10.510;2022-09-01T04:28:19;10.32;;;6.57;;
72850;SDS011;61171;43.848;10.510;2022-09-01T04:30:23;11.85;;;6.85;;
72850;SDS011;61171;43.848;10.510;2022-09-01T04:32:25;9.98;;;6.50;;
72850;SDS011;61171;43.848;10.510;2022-09-01T04:34:27;8.65;;;6.35;;
72850;SDS011;61171;43.848;10.510;2022-09-01T04:36:28;9.23;;;6.03;;
72850;SDS011;61171;43.848;10.510;2022-09-01T04:38:31;9.65;;;6.50;;
72850;SDS011;61171;43.848;10.510;2022-09-01T04:40:37;10.83;;;6.43;;
72850;SDS011;61171;43.848;10.510;2022-09-01T04:42:38;10.20;;;6.68;;
72850;SDS011;61171;43.848;10.510;2022-09-01T04:44:40;8.80;;;5.90;;
72850;SDS011;61171;43.848;10.510;2022-09-01T04:46:41;9.13;;;6.35;;
72850;SDS011;61171;43.848;10.510;2022-09-01T04:48:45;10.80;;;6.25;;
72850;SDS011;61171;43.848;10.510;2022-09-01T04:50:47;10.70;;;6.03;;
72850;SDS011;61171;43.848;10.510;2022-09-01T04:52:48;9.02;;;6.40;;
72850;SDS011;61171;43.848;10.510;2022-09-01T04:54:50;10.65;;;6.40;;
72850;SDS011;61171;43.848;10.510;2022-09-01T04:56:50;9.27;;;6.00;;
72850;SDS011;61171;43.848;10.510;2022-09-01T04:58:51;9.82;;;6.20;;
72850;SDS011;61171;43.848;10.510;2022-09-01T05:00:54;8.75;;;5.88;;
72850;SDS011;61171;43.848;10.510;2022-09-01T05:02:57;10.70;;;6.47;;
72850;SDS011;61171;43.848;10.510;2022-09-01T05:05:02;8.55;;;6.28;;
72850;SDS011;61171;43.848;10.510;2022-09-01T05:07:03;8.90;;;6.17;;
72850;SDS011;61171;43.848;10.510;2022-09-01T05:09:04;9.75;;;6.20;;
72850;SDS011;61171;43.848;10.510;2022-09-01T05:11:04;11.90;;;6.53;;
72850;SDS011;61171;43.848;10.510;2022-09-01T05:13:07;10.40;;;6.27;;
72850;SDS011;61171;43.848;10.510;2022-09-01T05:15:08;10.50;;;6.00;;
72850;SDS011;61171;43.848;10.510;2022-09-01T05:17:09;11.90;;;6.83;;
72850;SDS011;61171;43.848;10.510;2022-09-01T05:19:11;13.35;;;6.32;;
72850;SDS011;61171;43.848;10.510;2022-09-01T05:21:14;10.90;;;6.22;;
72850;SDS011;61171;43.848;10.510;2022-09-01T05:23:15;11.10;;;5.88;;
72850;SDS011;61171;43.848;10.510;2022-09-01T05:25:18;11.23;;;6.70;;
72850;SDS011;61171;43.848;10.510;2022-09-01T05:27:18;11.30;;;6.30;;
72850;SDS011;61171;43.848;10.510;2022-09-01T05:29:19;8.47;;;5.70;;
72850;SDS011;61171;43.848;10.510;2022-09-01T05:31:20;10.80;;;5.80;;
72850;SDS011;61171;43.848;10.510;2022-09-01T05:33:21;10.60;;;6.00;;
72850;SDS011;61171;43.848;10.510;2022-09-01T05:35:21;10.00;;;6.20;;
72850;SDS011;61171;43.848;10.510;2022-09-01T05:37:25;11.32;;;5.80;;
72850;SDS011;61171;43.848;10.510;2022-09-01T05:39:28;9.27;;;5.37;;
72850;SDS011;61171;43.848;10.510;2022-09-01T05:41:28;11.18;;;5.40;;
72850;SDS011;61171;43.848;10.510;2022-09-01T05:43:29;9.73;;;5.80;;
72850;SDS011;61171;43.848;10.510;2022-09-01T05:45:29;9.45;;;5.78;;
72850;SDS011;61171;43.848;10.510;2022-09-01T05:47:31;8.90;;;6.15;;
72850;SDS011;61171;43.848;10.510;2022-09-01T05:49:33;11.27;;;5.70;;
72850;SDS011;61171;43.848;10.510;2022-09-01T05:51:33;9.73;;;5.60;;
72850;SDS011;61171;43.848;10.510;2022-09-01T05:53:35;8.32;;;5.60;;
72850;SDS011;61171;43.848;10.510;2022-09-01T05:55:37;10.05;;;5.45;;
72850;SDS011;61171;43.848;10.510;2022-09-01T05:57:37;11.40;;;5.50;;
72850;SDS011;61171;43.848;10.510;2022-09-01T05:59:38;9.73;;;5.18;;
72850;SDS011;61171;43.848;10.510;2022-09-01T06:01:41;8.80;;;5.55;;
72850;SDS011;61171;43.848;10.510;2022-09-01T06:03:41;10.10;;;6.10;;
72850;SDS011;61171;43.848;10.510;2022-09-01T06:05:43;9.50;;;5.68;;
72850;SDS011;61171;43.848;10.510;2022-09-01T06:07:51;10.87;;;5.80;;
72850;SDS011;61171;43.848;10.510;2022-09-01T06:09:54;10.52;;;5.97;;
72850;SDS011;61171;43.848;10.510;2022-09-01T06:11:54;8.43;;;5.50;;
72850;SDS011;61171;43.848;10.510;2022-09-01T06:13:55;10.32;;;5.60;;
72850;SDS011;61171;43.848;10.510;2022-09-01T06:15:57;11.85;;;6.75;;
72850;SDS011;61171;43.848;10.510;2022-09-01T06:17:58;10.43;;;6.77;;
72850;SDS011;61171;43.848;10.510;2022-09-01T06:19:59;9.02;;;5.57;;
72850;SDS011;61171;43.848;10.510;2022-09-01T06:21:59;10.30;;;6.20;;
72850;SDS011;61171;43.848;10.510;2022-09-01T06:24:00;12.43;;;6.70;;
72850;SDS011;61171;43.848;10.510;2022-09-01T06:26:01;11.20;;;7.30;;
72850;SDS011;61171;43.848;10.510;2022-09-01T06:28:02;10.77;;;6.22;;
72850;SDS011;61171;43.848;10.510;2022-09-01T06:30:04;10.90;;;6.07;;
72850;SDS011;61171;43.848;10.510;2022-09-01T06:32:13;9.40;;;5.93;;
72850;SDS011;61171;43.848;10.510;2022-09-01T06:34:14;9.53;;;5.70;;
72850;SDS011;61171;43.848;10.510;2022-09-01T06:36:17;10.27;;;5.80;;
72850;SDS011;61171;43.848;10.510;2022-09-01T06:38:19;10.18;;;6.10;;
72850;SDS011;61171;43.848;10.510;2022-09-01T06:40:19;12.10;;;6.33;;
72850;SDS011;61171;43.848;10.510;2022-09-01T06:42:19;7.73;;;5.43;;
72850;SDS011;61171;43.848;10.510;2022-09-01T06:44:22;8.77;;;5.38;;
72850;SDS011;61171;43.848;10.510;2022-09-01T06:46:23;9.23;;;5.72;;
72850;SDS011;61171;43.848;10.510;2022-09-01T06:48:27;8.88;;;5.28;;
72850;SDS011;61171;43.848;10.510;2022-09-01T06:50:29;9.20;;;5.30;;
72850;SDS011;61171;43.848;10.510;2022-09-01T06:52:29;8.80;;;5.20;;
72850;SDS011;61171;43.848;10.510;2022-09-01T06:54:30;8.37;;;5.23;;
72850;SDS011;61171;43.848;10.510;2022-09-01T06:56:34;12.02;;;5.18;;
72850;SDS011;61171;43.848;10.510;2022-09-01T06:58:34;8.83;;;4.43;;
72850;SDS011;61171;43.848;10.510;2022-09-01T07:00:36;10.23;;;4.93;;
72850;SDS011;61171;43.848;10.510;2022-09-01T07:02:40;9.87;;;4.83;;
72850;SDS011;61171;43.848;10.510;2022-09-01T07:04:42;9.38;;;5.30;;
72850;SDS011;61171;43.848;10.510;2022-09-01T07:06:42;10.68;;;5.40;;
72850;SDS011;61171;43.848;10.510;2022-09-01T07:08:43;7.80;;;5.00;;
72850;SDS011;61171;43.848;10.510;2022-09-01T07:10:49;10.57;;;5.05;;
72850;SDS011;61171;43.848;10.510;2022-09-01T07:12:50;8.00;;;4.75;;
72850;SDS011;61171;43.848;10.510;2022-09-01T07:14:51;9.07;;;4.93;;
72850;SDS011;61171;43.848;10.510;2022-09-01T07:16:52;9.15;;;5.20;;
72850;SDS011;61171;43.848;10.510;2022-09-01T07:18:56;9.37;;;5.23;;
72850;SDS011;61171;43.848;10.510;2022-09-01T07:20:59;10.25;;;4.63;;
72850;SDS011;61171;43.848;10.510;2022-09-01T07:22:59;9.52;;;5.63;;
72850;SDS011;61171;43.848;10.510;2022-09-01T07:25:00;9.60;;;5.97;;
72850;SDS011;61171;43.848;10.510;2022-09-01T07:27:01;17.00;;;6.17;;
72850;SDS011;61171;43.848;10.510;2022-09-01T07:29:04;9.40;;;5.13;;
72850;SDS011;61171;43.848;10.510;2022-09-01T07:31:05;7.72;;;4.95;;
72850;SDS011;61171;43.848;10.510;2022-09-01T07:33:07;8.73;;;4.75;;
72850;SDS011;61171;43.848;10.510;2022-09-01T07:35:11;9.87;;;3.83;;
72850;SDS011;61171;43.848;10.510;2022-09-01T07:37:11;8.90;;;3.78;;
72850;SDS011;61171;43.848;10.510;2022-09-01T07:39:12;6.85;;;3.45;;
72850;SDS011;61171;43.848;10.510;2022-09-01T07:41:13;7.90;;;3.80;;
72850;SDS011;61171;43.848;10.510;2022-09-01T07:43:15;7.50;;;3.77;;
72850;SDS011;61171;43.848;10.510;2022-09-01T07:45:15;8.68;;;3.80;;
72850;SDS011;61171;43.848;10.510;2022-09-01T07:47:15;7.50;;;3.80;;
72850;SDS011;61171;43.848;10.510;2022-09-01T07:49:16;6.68;;;3.45;;
72850;SDS011;61171;43.848;10.510;2022-09-01T07:51:18;8.30;;;3.40;;
72850;SDS011;61171;43.848;10.510;2022-09-01T07:53:20;9.77;;;3.90;;
72850;SDS011;61171;43.848;10.510;2022-09-01T07:55:21;7.72;;;3.95;;
72850;SDS011;61171;43.848;10.510;2022-09-01T07:57:21;6.70;;;3.77;;
72850;SDS011;61171;43.848;10.510;2022-09-01T07:59:21;6.80;;;3.80;;
72850;SDS011;61171;43.848;10.510;2022-09-01T08:01:23;9.60;;;4.10;;
72850;SDS011;61171;43.848;10.510;2022-09-01T08:03:24;6.50;;;3.55;;
72850;SDS011;61171;43.848;10.510;2022-09-01T08:05:24;9.17;;;3.77;;
72850;SDS011;61171;43.848;10.510;2022-09-01T08:07:26;8.43;;;3.90;;
72850;SDS011;61171;43.848;10.510;2022-09-01T08:09:26;8.13;;;4.03;;
72850;SDS011;61171;43.848;10.510;2022-09-01T08:11:27;8.55;;;3.92;;
72850;SDS011;61171;43.848;10.510;2022-09-01T08:13:28;9.33;;;3.80;;
72850;SDS011;61171;43.848;10.510;2022-09-01T08:15:28;7.57;;;4.05;;
72850;SDS011;61171;43.848;10.510;2022-09-01T08:17:28;9.27;;;4.17;;
72850;SDS011;61171;43.848;10.510;2022-09-01T08:19:28;8.27;;;4.13;;
72850;SDS011;61171;43.848;10.510;2022-09-01T08:21:29;7.25;;;4.03;;
72850;SDS011;61171;43.848;10.510;2022-09-01T08:23:30;7.67;;;4.00;;
72850;SDS011;61171;43.848;10.510;2022-09-01T08:25:31;7.77;;;3.97;;
72850;SDS011;61171;43.848;10.510;2022-09-01T08:27:32;9.90;;;4.30;;
72850;SDS011;61171;43.848;10.510;2022-09-01T08:29:35;7.47;;;4.28;;
72850;SDS011;61171;43.848;10.510;2022-09-01T08:31:35;7.53;;;4.43;;
72850;SDS011;61171;43.848;10.510;2022-09-01T08:33:36;10.83;;;4.30;;
72850;SDS011;61171;43.848;10.510;2022-09-01T08:35:37;8.98;;;4.68;;
72850;SDS011;61171;43.848;10.510;2022-09-01T08:37:38;7.82;;;3.88;;
72850;SDS011;61171;43.848;10.510;2022-09-01T08:39:38;7.07;;;3.88;;
72850;SDS011;61171;43.848;10.510;2022-09-01T08:44:28;7.75;;;4.05;;
72850;SDS011;61171;43.848;10.510;2022-09-01T08:46:27;7.93;;;4.20;;
72850;SDS011;61171;43.848;10.510;2022-09-01T08:50:26;7.90;;;4.30;;
72850;SDS011;61171;43.848;10.510;2022-09-01T08:56:31;12.40;;;4.23;;
72850;SDS011;61171;43.848;10.510;2022-09-01T08:58:31;6.65;;;3.88;;
72850;SDS011;61171;43.848;10.510;2022-09-01T09:00:32;9.60;;;4.23;;
72850;SDS011;61171;43.848;10.510;2022-09-01T09:07:06;6.97;;;4.20;;
72850;SDS011;61171;43.848;10.510;2022-09-01T09:09:08;10.05;;;4.50;;
72850;SDS011;61171;43.848;10.510;2022-09-01T09:11:22;7.15;;;4.38;;
72850;SDS011;61171;43.848;10.510;2022-09-01T09:13:30;7.45;;;4.30;;
72850;SDS011;61171;43.848;10.510;2022-09-01T09:15:49;8.45;;;4.47;;
72850;SDS011;61171;43.848;10.510;2022-09-01T09:17:54;8.10;;;4.60;;
72850;SDS011;61171;43.848;10.510;2022-09-01T09:19:58;9.10;;;4.13;;
72850;SDS011;61171;43.848;10.510;2022-09-01T09:22:00;7.97;;;4.28;;
72850;SDS011;61171;43.848;10.510;2022-09-01T09:24:49;8.80;;;4.32;;
72850;SDS011;61171;43.848;10.510;2022-09-01T09:26:21;8.13;;;4.47;;
72850;SDS011;61171;43.848;10.510;2022-09-01T09:28:22;8.03;;;4.07;;
72850;SDS011;61171;43.848;10.510;2022-09-01T09:30:23;7.43;;;3.83;;
72850;SDS011;61171;43.848;10.510;2022-09-01T09:32:41;7.30;;;4.07;;
72850;SDS011;61171;43.848;10.510;2022-09-01T09:34:42;7.70;;;3.97;;
72850;SDS011;61171;43.848;10.510;2022-09-01T09:36:42;7.32;;;3.78;;
72850;SDS011;61171;43.848;10.510;2022-09-01T09:38:45;8.57;;;4.30;;
72850;SDS011;61171;43.848;10.510;2022-09-01T09:41:05;10.90;;;4.33;;
72850;SDS011;61171;43.848;10.510;2022-09-01T09:43:05;10.23;;;3.83;;
72850;SDS011;61171;43.848;10.510;2022-09-01T09:45:13;5.63;;;3.60;;
72850;SDS011;61171;43.848;10.510;2022-09-01T09:49:34;7.07;;;3.90;;
72850;SDS011;61171;43.848;10.510;2022-09-01T09:51:34;6.87;;;3.97;;
72850;SDS011;61171;43.848;10.510;2022-09-01T09:53:35;7.18;;;3.90;;
72850;SDS011;61171;43.848;10.510;2022-09-01T09:55:36;6.77;;;3.73;;
72850;SDS011;61171;43.848;10.510;2022-09-01T09:57:49;7.13;;;4.15;;
72850;SDS011;61171;43.848;10.510;2022-09-01T09:59:56;7.90;;;4.00;;
72850;SDS011;61171;43.848;10.510;2022-09-01T10:01:58;6.85;;;3.67;;
72850;SDS011;61171;43.848;10.510;2022-09-01T10:03:59;7.90;;;3.67;;
72850;SDS011;61171;43.848;10.510;2022-09-01T10:06:00;6.25;;;3.80;;
72850;SDS011;61171;43.848;10.510;2022-09-01T10:08:01;19.87;;;4.70;;
72850;SDS011;61171;43.848;10.510;2022-09-01T10:10:06;10.85;;;4.63;;
72850;SDS011;61171;43.848;10.510;2022-09-01T10:12:06;22.52;;;4.65;;
72850;SDS011;61171;43.848;10.510;2022-09-01T10:14:16;16.55;;;4.18;;
72850;SDS011;61171;43.848;10.510;2022-09-01T10:16:21;8.00;;;3.90;;
72850;SDS011;61171;43.848;10.510;2022-09-01T10:18:31;6.03;;;3.67;;
72850;SDS011;61171;43.848;10.510;2022-09-01T10:20:34;7.43;;;3.90;;
72850;SDS011;61171;43.848;10.510;2022-09-01T10:22:36;5.07;;;3.42;;
72850;SDS011;61171;43.848;10.510;2022-09-01T10:24:37;8.15;;;3.50;;
72850;SDS011;61171;43.848;10.510;2022-09-01T10:26:38;6.83;;;3.47;;
72850;SDS011;61171;43.848;10.510;2022-09-01T10:28:50;6.57;;;3.42;;
72850;SDS011;61171;43.848;10.510;2022-09-01T10:30:51;5.03;;;2.83;;
72850;SDS011;61171;43.848;10.510;2022-09-01T10:32:53;5.77;;;2.87;;
72850;SDS011;61171;43.848;10.510;2022-09-01T10:34:54;5.55;;;3.17;;
72850;SDS011;61171;43.848;10.510;2022-09-01T10:36:54;7.00;;;3.15;;
72850;SDS011;61171;43.848;10.510;2022-09-01T10:38:56;5.47;;;3.20;;
72850;SDS011;61171;43.848;10.510;2022-09-01T10:40:58;5.57;;;3.35;;
72850;SDS011;61171;43.848;10.510;2022-09-01T10:45:45;6.35;;;3.40;;
72850;SDS011;61171;43.848;10.510;2022-09-01T10:47:44;6.07;;;3.15;;
72850;SDS011;61171;43.848;10.510;2022-09-01T10:51:46;5.85;;;3.25;;
72850;SDS011;61171;43.848;10.510;2022-09-01T10:53:50;6.43;;;3.40;;
72850;SDS011;61171;43.848;10.510;2022-09-01T11:02:18;5.68;;;3.30;;
72850;SDS011;61171;43.848;10.510;2022-09-01T11:04:21;6.10;;;3.60;;
72850;SDS011;61171;43.848;10.510;2022-09-01T11:10:50;5.90;;;3.10;;
72850;SDS011;61171;43.848;10.510;2022-09-01T11:17:24;6.30;;;3.00;;
72850;SDS011;61171;43.848;10.510;2022-09-01T11:21:27;4.40;;;2.50;;
72850;SDS011;61171;43.848;10.510;2022-09-01T11:23:28;6.43;;;3.30;;
72850;SDS011;61171;43.848;10.510;2022-09-01T11:31:50;5.15;;;3.00;;
72850;SDS011;61171;43.848;10.510;2022-09-01T11:34:07;4.97;;;3.00;;
72850;SDS011;61171;43.848;10.510;2022-09-01T11:38:15;6.13;;;3.35;;
72850;SDS011;61171;43.848;10.510;2022-09-01T11:40:27;6.05;;;3.13;;
72850;SDS011;61171;43.848;10.510;2022-09-01T11:46:44;7.50;;;3.97;;
72850;SDS011;61171;43.848;10.510;2022-09-01T11:48:45;8.73;;;4.10;;
72850;SDS011;61171;43.848;10.510;2022-09-01T11:50:46;9.05;;;4.00;;
72850;SDS011;61171;43.848;10.510;2022-09-01T11:52:56;7.15;;;4.10;;
72850;SDS011;61171;43.848;10.510;2022-09-01T11:54:57;6.73;;;4.20;;
72850;SDS011;61171;43.848;10.510;2022-09-01T11:56:57;7.63;;;4.30;;
72850;SDS011;61171;43.848;10.510;2022-09-01T11:59:29;6.35;;;3.92;;
72850;SDS011;61171;43.848;10.510;2022-09-01T12:01:31;9.30;;;3.90;;
72850;SDS011;61171;43.848;10.510;2022-09-01T12:03:32;6.60;;;3.70;;
72850;SDS011;61171;43.848;10.510;2022-09-01T12:05:33;10.30;;;3.75;;
72850;SDS011;61171;43.848;10.510;2022-09-01T12:07:37;8.95;;;4.32;;
72850;SDS011;61171;43.848;10.510;2022-09-01T12:09:42;9.83;;;4.60;;
72850;SDS011;61171;43.848;10.510;2022-09-01T12:11:43;13.90;;;5.97;;
72850;SDS011;61171;43.848;10.510;2022-09-01T12:13:53;16.95;;;6.55;;
72850;SDS011;61171;43.848;10.510;2022-09-01T12:15:58;9.73;;;5.60;;
72850;SDS011;61171;43.848;10.510;2022-09-01T12:18:12;9.43;;;5.30;;
72850;SDS011;61171;43.848;10.510;2022-09-01T12:22:20;10.27;;;5.43;;
72850;SDS011;61171;43.848;10.510;2022-09-01T12:24:22;8.85;;;5.93;;
72850;SDS011;61171;43.848;10.510;2022-09-01T12:26:24;9.73;;;5.60;;
72850;SDS011;61171;43.848;10.510;2022-09-01T12:28:26;10.15;;;5.45;;
72850;SDS011;61171;43.848;10.510;2022-09-01T12:30:26;8.00;;;5.22;;
72850;SDS011;61171;43.848;10.510;2022-09-01T12:32:27;8.38;;;5.40;;
72850;SDS011;61171;43.848;10.510;2022-09-01T12:36:32;7.73;;;4.73;;
72850;SDS011;61171;43.848;10.510;2022-09-01T12:38:35;7.38;;;4.35;;
72850;SDS011;61171;43.848;10.510;2022-09-01T12:40:36;7.27;;;4.10;;
72850;SDS011;61171;43.848;10.510;2022-09-01T12:42:36;8.10;;;3.90;;
72850;SDS011;61171;43.848;10.510;2022-09-01T12:46:41;6.43;;;3.60;;
72850;SDS011;61171;43.848;10.510;2022-09-01T12:48:42;6.97;;;4.00;;
72850;SDS011;61171;43.848;10.510;2022-09-01T12:50:43;6.97;;;4.03;;
72850;SDS011;61171;43.848;10.510;2022-09-01T12:52:45;6.80;;;3.95;;
72850;SDS011;61171;43.848;10.510;2022-09-01T12:54:45;8.18;;;3.30;;
72850;SDS011;61171;43.848;10.510;2022-09-01T12:56:47;6.40;;;2.83;;
72850;SDS011;61171;43.848;10.510;2022-09-01T12:58:49;5.97;;;2.60;;
72850;SDS011;61171;43.848;10.510;2022-09-01T13:01:03;5.05;;;2.90;;
72850;SDS011;61171;43.848;10.510;2022-09-01T13:03:11;6.10;;;2.75;;
72850;SDS011;61171;43.848;10.510;2022-09-01T13:07:19;5.20;;;2.80;;
72850;SDS011;61171;43.848;10.510;2022-09-01T13:09:19;6.00;;;2.90;;
72850;SDS011;61171;43.848;10.510;2022-09-01T13:11:19;5.37;;;2.80;;
72850;SDS011;61171;43.848;10.510;2022-09-01T13:13:20;5.20;;;2.70;;
72850;SDS011;61171;43.848;10.510;2022-09-01T13:15:24;5.50;;;2.92;;
72850;SDS011;61171;43.848;10.510;2022-09-01T13:17:27;5.93;;;3.00;;
72850;SDS011;61171;43.848;10.510;2022-09-01T13:19:27;5.50;;;3.03;;
72850;SDS011;61171;43.848;10.510;2022-09-01T13:21:28;6.40;;;2.90;;
72850;SDS011;61171;43.848;10.510;2022-09-01T13:23:29;5.17;;;2.63;;
72850;SDS011;61171;43.848;10.510;2022-09-01T13:25:29;4.88;;;2.70;;
72850;SDS011;61171;43.848;10.510;2022-09-01T13:27:29;4.90;;;2.60;;
72850;SDS011;61171;43.848;10.510;2022-09-01T13:29:30;5.97;;;2.90;;
72850;SDS011;61171;43.848;10.510;2022-09-01T13:31:30;6.43;;;3.00;;
72850;SDS011;61171;43.848;10.510;2022-09-01T13:33:31;4.87;;;2.73;;
72850;SDS011;61171;43.848;10.510;2022-09-01T13:35:32;4.90;;;3.05;;